createdAt,value
2022-08-26T00:00:38.677Z,23.20
2022-08-26T00:03:12.354Z,23.18
2022-08-26T00:05:47.651Z,23.10
2022-08-26T00:08:22.839Z,23.00
2022-08-26T00:10:57.212Z,22.90
2022-08-26T00:13:37.213Z,22.90
2022-08-26T00:16:13.550Z,22.90
2022-08-26T00:18:46.980Z,22.80
2022-08-26T00:21:22.009Z,22.80
2022-08-26T00:23:57.767Z,22.70
2022-08-26T00:26:33.940Z,22.78
2022-08-26T00:29:07.346Z,22.80
2022-08-26T00:31:41.092Z,22.80
2022-08-26T00:34:16.768Z,22.80
2022-08-26T00:36:54.700Z,22.70
2022-08-26T00:39:28.391Z,22.60
2022-08-26T00:42:01.947Z,22.50
2022-08-26T00:44:35.678Z,22.40
2022-08-26T00:47:24.358Z,22.40
2022-08-26T00:49:59.205Z,22.32
2022-08-26T00:52:34.810Z,22.40
2022-08-26T00:55:20.164Z,22.40
2022-08-26T00:57:56.657Z,22.40
2022-08-26T01:00:36.072Z,22.36
2022-08-26T01:03:11.646Z,22.32
2022-08-26T01:05:48.140Z,22.30
2022-08-26T01:08:21.834Z,22.30
2022-08-26T01:11:01.172Z,22.16
2022-08-26T01:13:36.974Z,22.10
2022-08-26T01:16:18.097Z,22.00
2022-08-26T01:18:52.631Z,22.00
2022-08-26T01:21:36.042Z,21.90
2022-08-26T01:24:16.798Z,21.90
2022-08-26T01:26:51.447Z,21.90
2022-08-26T01:29:25.362Z,21.86
2022-08-26T01:32:00.583Z,21.80
2022-08-26T01:34:37.544Z,21.80
2022-08-26T01:37:16.241Z,21.88
2022-08-26T01:39:55.466Z,21.96
2022-08-26T01:42:31.306Z,22.00
2022-08-26T01:45:11.391Z,21.90
2022-08-26T01:47:47.373Z,21.88
2022-08-26T01:50:30.676Z,21.80
2022-08-26T01:53:12.390Z,21.72
2022-08-26T01:55:53.033Z,21.70
2022-08-26T01:58:33.215Z,21.60
2022-08-26T02:01:10.085Z,21.56
2022-08-26T02:04:02.372Z,21.50
2022-08-26T02:06:37.054Z,21.50
2022-08-26T02:09:11.229Z,21.50
2022-08-26T02:11:45.230Z,21.50
2022-08-26T02:14:24.055Z,21.40
2022-08-26T02:17:01.222Z,21.40
2022-08-26T02:19:39.937Z,21.40
2022-08-26T02:22:19.787Z,21.40
2022-08-26T02:24:57.444Z,21.40
2022-08-26T02:27:35.079Z,21.36
2022-08-26T02:30:19.306Z,21.30
2022-08-26T02:32:53.253Z,21.20
2022-08-26T02:35:28.088Z,21.20
2022-08-26T02:38:03.041Z,21.20
2022-08-26T02:40:45.777Z,21.20
2022-08-26T02:43:31.367Z,21.30
2022-08-26T02:46:07.983Z,21.40
2022-08-26T02:48:42.090Z,21.50
2022-08-26T02:51:15.491Z,21.60
2022-08-26T02:53:49.043Z,21.60
2022-08-26T02:56:27.036Z,21.60
2022-08-26T02:59:00.744Z,21.60
2022-08-26T03:01:37.175Z,21.60
2022-08-26T03:04:14.319Z,21.42
2022-08-26T03:06:53.074Z,21.30
2022-08-26T03:09:29.009Z,21.30
2022-08-26T03:12:02.899Z,21.30
2022-08-26T03:14:36.292Z,21.30
2022-08-26T03:17:10.135Z,21.30
2022-08-26T03:19:43.470Z,21.30
2022-08-26T03:22:17.887Z,21.30
2022-08-26T03:24:57.054Z,21.30
2022-08-26T03:27:32.816Z,21.30
2022-08-26T03:30:45.305Z,21.30
2022-08-26T03:33:20.353Z,21.20
2022-08-26T03:35:54.906Z,21.10
2022-08-26T03:38:28.333Z,21.00
2022-08-26T03:41:04.852Z,21.00
2022-08-26T03:43:40.728Z,20.90
2022-08-26T03:46:21.329Z,20.90
2022-08-26T03:48:54.895Z,20.90
2022-08-26T03:51:28.679Z,20.90
2022-08-26T03:54:03.105Z,20.84
2022-08-26T03:56:36.886Z,20.80
2022-08-26T03:59:12.429Z,20.86
2022-08-26T04:01:45.775Z,20.90
2022-08-26T04:04:22.742Z,20.90
2022-08-26T04:07:01.229Z,20.80
2022-08-26T04:09:35.237Z,20.80
2022-08-26T04:12:10.843Z,20.80
2022-08-26T04:14:44.818Z,20.80
2022-08-26T04:17:18.232Z,20.80
2022-08-26T04:19:52.115Z,20.74
2022-08-26T04:22:25.539Z,20.78
2022-08-26T04:24:59.714Z,20.90
2022-08-26T04:27:36.074Z,21.00
2022-08-26T04:30:14.358Z,21.12
2022-08-26T04:32:55.950Z,21.20
2022-08-26T04:35:32.132Z,21.20
2022-08-26T04:38:05.901Z,21.20
2022-08-26T04:40:47.076Z,21.20
2022-08-26T04:43:20.446Z,21.20
2022-08-26T04:45:56.845Z,21.20
2022-08-26T04:48:30.791Z,21.28
2022-08-26T04:51:05.368Z,21.30
2022-08-26T04:53:38.936Z,21.48
2022-08-26T04:56:12.617Z,21.60
2022-08-26T04:58:46.192Z,21.70
2022-08-26T05:01:20.037Z,21.80
2022-08-26T05:03:54.878Z,21.90
2022-08-26T05:06:28.713Z,22.00
2022-08-26T05:09:10.505Z,22.20
2022-08-26T05:11:45.672Z,22.28
2022-08-26T05:14:26.128Z,22.36
2022-08-26T05:16:59.520Z,22.42
2022-08-26T05:19:37.193Z,22.54
2022-08-26T05:22:18.391Z,22.58
2022-08-26T05:24:51.931Z,22.50
2022-08-26T05:27:26.726Z,22.50
2022-08-26T05:30:02.401Z,22.48
2022-08-26T05:32:47.532Z,22.46
2022-08-26T05:35:21.184Z,22.50
2022-08-26T05:37:56.005Z,22.60
2022-08-26T05:40:31.236Z,22.60
2022-08-26T05:43:10.529Z,22.70
2022-08-26T05:45:47.505Z,22.76
2022-08-26T05:48:24.338Z,22.80
2022-08-26T05:50:58.435Z,22.88
2022-08-26T05:53:33.076Z,22.90
2022-08-26T05:56:11.524Z,22.90
2022-08-26T05:58:46.197Z,23.00
2022-08-26T06:01:24.272Z,23.10
2022-08-26T06:04:01.534Z,23.20
2022-08-26T06:06:41.676Z,23.30
2022-08-26T06:09:18.653Z,23.40
2022-08-26T06:11:52.872Z,23.50
2022-08-26T06:14:27.023Z,23.58
2022-08-26T06:17:00.945Z,23.60
2022-08-26T06:19:34.637Z,23.60
2022-08-26T06:22:27.922Z,23.70
2022-08-26T06:25:18.979Z,23.70
2022-08-26T06:27:52.670Z,23.82
2022-08-26T06:30:26.100Z,23.90
2022-08-26T06:32:59.403Z,24.00
2022-08-26T06:35:36.977Z,24.00
2022-08-26T06:38:11.528Z,24.10
2022-08-26T06:40:49.377Z,24.20
2022-08-26T06:43:26.163Z,24.22
2022-08-26T06:46:11.821Z,24.30
2022-08-26T06:48:46.026Z,24.30
2022-08-26T06:51:23.717Z,24.40
2022-08-26T06:54:00.608Z,24.50
2022-08-26T06:56:39.746Z,24.60
2022-08-26T06:59:15.389Z,24.70
2022-08-26T07:01:50.022Z,24.80
2022-08-26T07:04:25.032Z,24.90
2022-08-26T07:07:01.867Z,25.00
2022-08-26T07:09:35.812Z,25.10
2022-08-26T07:12:10.696Z,25.20
2022-08-26T07:14:47.481Z,25.20
2022-08-26T07:17:21.758Z,25.22
2022-08-26T07:19:58.316Z,25.30
2022-08-26T07:22:32.985Z,25.30
2022-08-26T07:25:08.726Z,25.40
2022-08-26T07:27:42.737Z,25.50
2022-08-26T07:30:18.547Z,25.60
2022-08-26T09:07:20.373Z,30.92
2022-08-26T09:10:00.473Z,31.10
2022-08-26T09:12:37.639Z,31.00
2022-08-26T09:15:21.607Z,30.80
2022-08-26T09:18:08.142Z,30.68
2022-08-26T09:20:56.506Z,30.58
2022-08-26T09:23:31.264Z,30.50
2022-08-26T09:26:16.718Z,30.40
2022-08-26T09:28:58.016Z,30.40
2022-08-26T09:31:36.251Z,30.32
2022-08-26T09:34:22.081Z,30.30
2022-08-26T09:36:58.287Z,30.30
2022-08-26T09:39:37.873Z,30.30
2022-08-26T09:42:24.479Z,30.30
2022-08-26T09:45:00.945Z,30.36
2022-08-26T09:47:38.721Z,30.40
2022-08-26T09:50:28.818Z,30.48
2022-08-26T09:53:20.822Z,30.50
2022-08-26T09:56:15.647Z,30.58
2022-08-26T09:58:50.704Z,30.60
2022-08-26T10:01:36.974Z,30.70
2022-08-26T10:04:16.231Z,30.76
2022-08-26T10:07:02.683Z,30.80
2022-08-26T10:09:43.173Z,31.00
2022-08-26T10:12:22.205Z,31.10
2022-08-26T10:15:05.462Z,31.12
2022-08-26T10:17:48.843Z,31.20
2022-08-26T10:20:47.321Z,31.30
2022-08-26T10:23:25.917Z,31.44
2022-08-26T10:26:06.574Z,31.50
2022-08-26T10:28:49.459Z,31.60
2022-08-26T10:31:38.360Z,31.70
2022-08-26T10:34:17.725Z,31.90
2022-08-26T10:37:13.906Z,32.00
2022-08-26T10:39:59.142Z,32.10
2022-08-26T10:42:38.266Z,32.20
2022-08-26T10:45:16.670Z,32.28
2022-08-26T10:47:56.625Z,32.30
2022-08-26T10:50:35.375Z,32.40
2022-08-26T10:53:24.907Z,32.40
2022-08-26T10:56:18.588Z,32.48
2022-08-26T10:59:12.687Z,32.50
2022-08-26T11:01:55.197Z,32.52
2022-08-26T11:04:48.510Z,32.60
2022-08-26T11:07:52.639Z,32.64
2022-08-26T11:11:05.416Z,32.70
2022-08-26T11:14:08.674Z,32.80
2022-08-26T11:16:45.241Z,32.90
2022-08-26T11:20:03.328Z,32.98
2022-08-26T11:22:48.057Z,33.10
2022-08-26T11:25:27.857Z,33.10
2022-08-26T11:28:05.139Z,33.20
2022-08-26T11:30:57.886Z,33.20
2022-08-26T11:33:54.713Z,33.30
2022-08-26T11:36:57.891Z,33.40
2022-08-26T11:39:55.443Z,33.50
2022-08-26T11:42:41.044Z,33.70
2022-08-26T11:45:29.321Z,33.88
2022-08-26T11:48:17.797Z,34.06
2022-08-26T11:51:00.556Z,34.26
2022-08-26T11:53:37.247Z,34.44
2022-08-26T11:56:17.614Z,34.60
2022-08-26T11:58:53.469Z,34.80
2022-08-26T12:01:35.838Z,35.00
2022-08-26T12:04:14.879Z,35.20
2022-08-26T12:06:53.453Z,36.56
2022-08-26T12:09:31.440Z,38.12
2022-08-26T12:12:24.322Z,39.62
2022-08-26T12:15:23.761Z,41.28
2022-08-26T12:17:58.151Z,42.72
2022-08-26T12:20:51.479Z,43.80
2022-08-26T12:23:32.079Z,44.96
2022-08-26T12:26:12.299Z,46.22
2022-08-26T12:28:52.965Z,47.12
2022-08-26T12:31:32.639Z,47.80
2022-08-26T12:34:17.707Z,48.46
2022-08-26T12:36:56.746Z,49.10
2022-08-26T14:53:37.148Z,53.48
2022-08-26T14:56:42.122Z,53.92
2022-08-26T14:59:25.653Z,53.90
2022-08-26T15:03:11.664Z,53.60
2022-08-26T15:06:36.208Z,53.10
2022-08-26T15:09:59.066Z,52.60
2022-08-26T15:15:53.749Z,52.00
2022-08-26T15:18:27.190Z,51.64
2022-08-26T15:21:00.471Z,51.32
2022-08-26T15:23:33.957Z,51.10
2022-08-26T15:26:08.911Z,50.80
2022-08-26T15:28:42.805Z,50.60
2022-08-26T15:31:16.237Z,50.18
2022-08-26T15:33:52.984Z,49.62
2022-08-26T15:36:29.077Z,49.40
2022-08-26T15:39:07.997Z,49.10
2022-08-26T15:41:43.134Z,48.62
2022-08-26T15:44:20.789Z,48.34
2022-08-26T15:46:58.486Z,48.00
2022-08-26T15:49:33.049Z,47.70
2022-08-26T15:56:29.245Z,46.76
2022-08-26T20:23:19.150Z,26.64
2022-08-26T20:47:19.263Z,25.62
2022-08-26T20:49:48.473Z,25.70
2022-08-26T20:52:22.833Z,25.60
2022-08-26T20:54:52.181Z,25.50
2022-08-26T20:57:22.037Z,25.30
2022-08-26T20:59:51.917Z,25.10
2022-08-26T21:02:21.272Z,24.90
2022-08-26T21:04:50.982Z,24.80
2022-08-26T21:07:20.221Z,24.70
2022-08-26T21:09:51.668Z,24.60
2022-08-26T21:12:21.316Z,24.40
2022-08-26T21:14:50.739Z,24.20
2022-08-26T21:17:20.349Z,24.00
2022-08-26T21:19:49.731Z,23.90
2022-08-26T21:22:19.349Z,23.80
2022-08-26T21:24:48.877Z,23.80
2022-08-26T21:27:23.047Z,23.70
2022-08-26T21:30:01.288Z,23.60
2022-08-26T21:32:31.857Z,23.52
2022-08-26T21:35:01.988Z,23.50
2022-08-26T21:37:31.272Z,23.40
2022-08-26T21:40:03.018Z,23.30
2022-08-26T21:42:34.739Z,23.20
2022-08-26T21:45:06.892Z,23.20
2022-08-26T21:47:36.221Z,23.10
2022-08-26T21:50:08.249Z,23.00
2022-08-26T21:52:39.134Z,23.00
2022-08-26T21:55:11.737Z,22.90
2022-08-26T21:57:41.249Z,22.80
2022-08-26T22:00:16.227Z,22.80
2022-08-26T22:02:47.673Z,22.70
2022-08-26T22:05:18.311Z,22.70
2022-08-26T22:07:49.087Z,22.60
2022-08-26T22:10:18.880Z,22.50
2022-08-26T22:12:48.264Z,22.40
2022-08-26T22:15:22.473Z,22.30
2022-08-26T22:17:51.777Z,22.30
2022-08-26T22:20:23.420Z,22.26
2022-08-26T22:22:52.625Z,22.20
2022-08-26T22:25:22.043Z,22.10
2022-08-26T22:27:51.586Z,22.08
2022-08-26T22:30:21.394Z,22.00
2022-08-26T22:32:50.712Z,21.90
2022-08-26T22:36:07.670Z,21.90
2022-08-26T22:38:37.339Z,22.00
2022-08-26T22:41:09.502Z,22.10
2022-08-26T22:43:39.764Z,22.20
2022-08-26T22:46:15.196Z,22.20
2022-08-26T22:54:50.924Z,22.00
2022-08-26T22:57:23.584Z,22.10
2022-08-26T22:59:53.227Z,22.10
2022-08-26T23:02:22.595Z,22.16
2022-08-26T23:06:06.184Z,22.20
2022-08-26T23:08:35.768Z,22.20
2022-08-26T23:11:10.979Z,22.20
2022-08-26T23:13:44.756Z,22.30
2022-08-26T23:16:14.475Z,22.30
2022-08-26T23:18:46.851Z,22.30
2022-08-26T23:59:44.751Z,23.40
